Thunder radar more information blitzortung!


Radar de pluja more information rain snow radar


Visita la nostra xarxa de llocs de meteo:

Template documentation
and downloads

And another site



No particular awareness of the weather is required.    There are no Weather-warnings

Pagina Historial Weather Underground text

Diari Resum May 13, 2017 Unitats:  Mètric    Imperial   Tant
« Previous Dia
SegĂźent Dia »
Diari Setmana Mensual Anual Personalitzada
  Maxima: Minima: Media:
Temperatura: -17.8 °C -10.4 °C -5.8 °C
Punt de rosada: -17.8 °C -14.6 °C -13.2 °C
Humitat: Humidity % 28 % 44 %
Wind Speed: 0 km/h 0 km/h 15.4 km/h
RĂ fegues de vent: 0 km/h - -
Vent:- - WSW
Pression baro: 0 hPa 34222.3 hPa -
Precipitacions: 0 mm    
Historical Graphs
 
 
Dades de taula per May 13, 2017
Temps Temperatura Punt de rosada Pression baro Vent Wind Speed RĂ fegues de vent Humitat Rainfall Rate (Hourly)
-17.8 °C -17.8 °C 0 hPa Calm     Humidity % 0 mm
00:04 -8.9 °C -12.3 °C 34222.3 hPa WSW 17.9 km/h 17.9 km/h 67 % 0 mm
00:05 -9.7 °C -12.8 °C 34222.3 hPa Calm   2.6 km/h 69 % 0 mm
00:09 -8.9 °C -12.2 °C 34222.3 hPa SW 9 km/h 9 km/h 68 % 0 mm
00:14 -9 °C -12.3 °C 34222.3 hPa SSW 15 km/h 15 km/h 68 % 0 mm
00:15 -9.7 °C -12.9 °C 34222.3 hPa West 2.6 km/h 5.1 km/h 68 % 0 mm
00:25 -9.7 °C -12.9 °C 34256.2 hPa West 2.6 km/h 5.1 km/h 68 % 0 mm
00:35 -9.7 °C -12.9 °C 34256.2 hPa WNW 2.6 km/h 2.6 km/h 68 % 0 mm
00:45 -9.6 °C -12.9 °C 34256.2 hPa Calm   5.1 km/h 68 % 0 mm
00:55 -9.7 °C -12.9 °C 34256.2 hPa SW 2.6 km/h 5.1 km/h 68 % 0 mm
01:05 -9.9 °C -13 °C 34256.2 hPa Calm   5.1 km/h 69 % 0 mm
01:15 -10.2 °C -13.3 °C 34256.2 hPa SW 2.6 km/h 7.7 km/h 69 % 0 mm
01:25 -10.2 °C -13.2 °C 34256.2 hPa Calm     70 % 0 mm
01:35 -10.3 °C -13.4 °C 34256.2 hPa SW 7.7 km/h 7.7 km/h 69 % 0 mm
01:45 -10.4 °C -13.2 °C 34256.2 hPa SW 5.1 km/h 7.7 km/h 71 % 0 mm
01:55 -10.3 °C -13.2 °C 34256.2 hPa SW 5.1 km/h 7.7 km/h 71 % 0 mm
02:05 -9.8 °C -12.6 °C 34256.2 hPa WSW 5.1 km/h 7.7 km/h 72 % 0 mm
02:15 -9.8 °C -12.6 °C 34256.2 hPa WSW 5.1 km/h 5.1 km/h 72 % 0 mm
02:25 -9.6 °C -12.5 °C 34256.2 hPa SW 2.6 km/h 7.7 km/h 71 % 0 mm
02:35 -9.4 °C -12.3 °C 34293.4 hPa Calm   2.6 km/h 71 % 0 mm
02:45 -9.1 °C -12.1 °C 34293.4 hPa SW 2.6 km/h 7.7 km/h 71 % 0 mm
02:55 -8.8 °C -11.9 °C 34293.4 hPa South 2.6 km/h 5.1 km/h 70 % 0 mm
03:05 -8.9 °C -12.1 °C 34293.4 hPa ESE 7.7 km/h 10.3 km/h 69 % 0 mm
03:25 -8.1 °C -11.6 °C 34293.4 hPa SE 2.6 km/h 7.7 km/h 67 % 0 mm
03:35 -7.8 °C -11.4 °C 34293.4 hPa SSE 2.6 km/h 5.1 km/h 66 % 0 mm
03:45 -7.7 °C -11.4 °C 34293.4 hPa SW 2.6 km/h 5.1 km/h 65 % 0 mm
03:55 -7.6 °C -11.4 °C 34327.3 hPa WSW 5.1 km/h 7.7 km/h 64 % 0 mm
04:05 -7.6 °C -11.6 °C 34327.3 hPa WSW 5.1 km/h 12.9 km/h 63 % 0 mm
04:15 -7.6 °C -11.7 °C 34327.3 hPa WSW 7.7 km/h 10.3 km/h 62 % 0 mm
04:25 -7.3 °C -11.4 °C 34327.3 hPa WSW 5.1 km/h 7.7 km/h 62 % 0 mm
04:35 -7.2 °C -11.6 °C 34327.3 hPa WSW 7.7 km/h 15.6 km/h 60 % 0 mm
04:45 -7.1 °C -11.7 °C 34327.3 hPa WSW 12.9 km/h 15.6 km/h 59 % 0 mm
04:55 -6.8 °C -11.5 °C 34327.3 hPa West 7.7 km/h 7.7 km/h 58 % 0 mm
05:05 -6.8 °C -11.5 °C 34327.3 hPa West 12.9 km/h 15.6 km/h 58 % 0 mm
05:15 -6.6 °C -11.6 °C 34327.3 hPa West 5.1 km/h 10.3 km/h 56 % 0 mm
10:21 -6.4 °C -11.6 °C 34361.1 hPa West 14 km/h 14 km/h 55 % 0 mm
10:26 -6.3 °C -11.6 °C 34327.3 hPa WSW 11.9 km/h 11.9 km/h 55 % 0 mm
10:31 -6.2 °C -11.6 °C 34327.3 hPa SW 9 km/h 9 km/h 54 % 0 mm
10:36 -5.9 °C -11.5 °C 34327.3 hPa WSW 15 km/h 15 km/h 53 % 0 mm
10:41 -5.9 °C -11.4 °C 34361.1 hPa WSW 15 km/h 15 km/h 53 % 0 mm
10:46 -5.8 °C -11.3 °C 34361.1 hPa WSW 23.8 km/h 23.8 km/h 53 % 0 mm
10:51 -5.7 °C -11.4 °C 34361.1 hPa North 23.8 km/h 23.8 km/h 52 % 0 mm
10:56 -5.4 °C -11.2 °C 34361.1 hPa WSW 11.9 km/h 11.9 km/h 52 % 0 mm
11:01 -5.6 °C -11.4 °C 34361.1 hPa WSW 15 km/h 15 km/h 51 % 0 mm
11:02 -5.5 °C -11.4 °C 34361.1 hPa WSW 11.9 km/h 11.9 km/h 51 % 0 mm
11:07 -5.4 °C -11.3 °C 34361.1 hPa SW 11.9 km/h 11.9 km/h 51 % 0 mm
11:12 -5.3 °C -11.3 °C 34361.1 hPa WSW 22 km/h 22 km/h 50 % 0 mm
11:17 -5.4 °C -11.6 °C 34361.1 hPa SW 10.3 km/h 10.3 km/h 49 % 0 mm
11:22 -5.3 °C -11.6 °C 34361.1 hPa West 15 km/h 15 km/h 49 % 0 mm
11:27 -5.3 °C -11.6 °C 34361.1 hPa West 15 km/h 15 km/h 49 % 0 mm
11:32 -5.1 °C -11.3 °C 34361.1 hPa West 15 km/h 15 km/h 49 % 0 mm
11:37 -5.1 °C -11.6 °C 34361.1 hPa WNW 23.8 km/h 23.8 km/h 48 % 0 mm
11:42 -5.1 °C -11.5 °C 34361.1 hPa WSW 20.9 km/h 20.9 km/h 48 % 0 mm
11:47 -4.9 °C -11.5 °C 34361.1 hPa West 15 km/h 15 km/h 47 % 0 mm
11:52 -4.7 °C -11.3 °C 34361.1 hPa SSW 20.9 km/h 20.9 km/h 47 % 0 mm
11:57 -4.7 °C -11.6 °C 34361.1 hPa WSW 17.9 km/h 17.9 km/h 46 % 0 mm
12:02 -4.6 °C -11.4 °C 34361.1 hPa WSW 9 km/h 9 km/h 46 % 0 mm
12:07 -4.4 °C -11.5 °C 34361.1 hPa SW 23.8 km/h 23.8 km/h 45 % 0 mm
12:12 -4.6 °C -11.6 °C 34361.1 hPa SW 17.9 km/h 17.9 km/h 45 % 0 mm
12:17 -4.8 °C -12.2 °C 34361.1 hPa North 15 km/h 15 km/h 43 % 0 mm
12:22 -4.7 °C -12.1 °C 34361.1 hPa West 15 km/h 15 km/h 43 % 0 mm
12:27 -4.3 °C -11.8 °C 34361.1 hPa West 9 km/h 9 km/h 43 % 0 mm
12:32 -4.3 °C -11.8 °C 34361.1 hPa SW 15 km/h 15 km/h 43 % 0 mm
12:37 -4.1 °C -11.7 °C 34361.1 hPa North 29.8 km/h 29.8 km/h 42 % 0 mm
12:42 -4.2 °C -11.8 °C 34361.1 hPa West 20.9 km/h 20.9 km/h 42 % 0 mm
12:47 -4.1 °C -12 °C 34361.1 hPa SW 17.9 km/h 17.9 km/h 41 % 0 mm
12:52 -3.9 °C -12.2 °C 34361.1 hPa SW 11.9 km/h 11.9 km/h 39 % 0 mm
12:57 -3.9 °C -12.2 °C 34361.1 hPa SW 11.9 km/h 11.9 km/h 39 % 0 mm
13:02 -3.8 °C -12.3 °C 34361.1 hPa WNW 15.6 km/h 15.6 km/h 38 % 0 mm
13:07 -3.9 °C -12.4 °C 34361.1 hPa SW 15 km/h 15 km/h 38 % 0 mm
13:12 -3.8 °C -12.6 °C 34361.1 hPa WSW 25.1 km/h 25.1 km/h 37 % 0 mm
13:17 -3.9 °C -13.1 °C 34361.1 hPa West 20.9 km/h 20.9 km/h 35 % 0 mm
13:22 -4.1 °C -13.3 °C 34361.1 hPa SSW 15 km/h 15 km/h 35 % 0 mm
13:27 -3.9 °C -13.4 °C 34395 hPa WNW 17.9 km/h 20.3 km/h 34 % 0 mm
13:32 -3.8 °C -13.5 °C 34395 hPa WSW 28.2 km/h 28.2 km/h 33 % 0 mm
13:37 -3.8 °C -14 °C 34395 hPa NNW 26.9 km/h 26.9 km/h 31 % 0 mm
13:42 -3.9 °C -14.1 °C 34361.1 hPa WNW 15 km/h 15 km/h 31 % 0 mm
13:47 -3.8 °C -14 °C 34361.1 hPa WNW 11.9 km/h 11.9 km/h 31 % 0 mm
13:52 -3.6 °C -13.8 °C 34361.1 hPa WSW 17.9 km/h 17.9 km/h 31 % 0 mm
13:57 -3.8 °C -14.2 °C 34361.1 hPa West 26.9 km/h 26.9 km/h 30 % 0 mm
14:02 -3.8 °C -14.2 °C 34361.1 hPa NNW 17.9 km/h 17.9 km/h 30 % 0 mm
14:07 -3.7 °C -14.1 °C 34361.1 hPa NW 17.4 km/h 17.4 km/h 30 % 0 mm
14:12 -3.4 °C -13.7 °C 34395 hPa WNW 17.9 km/h 17.9 km/h 31 % 0 mm
14:17 -3.6 °C -14.1 °C 34395 hPa West 23.8 km/h 23.8 km/h 30 % 0 mm
14:22 -3.6 °C -14.1 °C 34395 hPa SW 20.9 km/h 20.9 km/h 30 % 0 mm
14:27 -3.5 °C -14 °C 34361.1 hPa NW 20.9 km/h 20.9 km/h 30 % 0 mm
14:32 -3.5 °C -14 °C 34361.1 hPa WSW 20.9 km/h 20.9 km/h 30 % 0 mm
14:37 -3.7 °C -14.1 °C 34361.1 hPa WSW 20.9 km/h 20.9 km/h 30 % 0 mm
14:42 -3.8 °C -14.2 °C 34395 hPa SW 17.9 km/h 17.9 km/h 30 % 0 mm
14:47 -3.9 °C -14.3 °C 34395 hPa West 12.7 km/h 12.7 km/h 30 % 0 mm
14:52 -4.1 °C -14.5 °C 34395 hPa WSW 15 km/h 15 km/h 30 % 0 mm
14:57 -3.8 °C -14.6 °C 34395 hPa NW 26.9 km/h 26.9 km/h 29 % 0 mm
14:58 -3.8 °C -14.6 °C 34395 hPa WSW 26.9 km/h 26.9 km/h 29 % 0 mm
15:03 -3.7 °C -14.4 °C 34395 hPa WSW 9.3 km/h 11.6 km/h 29 % 0 mm
15:08 -3.4 °C -13.9 °C 34395 hPa SSE 9.3 km/h 9.3 km/h 30 % 0 mm
15:09 -3.3 °C -13.8 °C 34395 hPa West 19.2 km/h 19.2 km/h 30 % 0 mm
15:14 -3.3 °C -13.8 °C 34361.1 hPa WNW 20.9 km/h 20.9 km/h 30 % 0 mm
15:19 -3.3 °C -13.8 °C 34361.1 hPa West 15 km/h 15 km/h 30 % 0 mm
15:24 -3.3 °C -13.8 °C 34361.1 hPa SW 15 km/h 15 km/h 30 % 0 mm
15:29 -3.4 °C -13.9 °C 34395 hPa WNW 17.9 km/h 17.9 km/h 30 % 0 mm
15:34 -3.1 °C -13.9 °C 34395 hPa WNW 11.9 km/h 11.9 km/h 29 % 0 mm
15:39 -3.1 °C -13.9 °C 34395 hPa West 20.9 km/h 20.9 km/h 29 % 0 mm
15:44 -3.3 °C -14.4 °C 34395 hPa West 25.1 km/h 25.1 km/h 28 % 0 mm
15:49 -3.2 °C -14 °C 34395 hPa SW 15.6 km/h 15.6 km/h 29 % 0 mm
15:54 -3.1 °C -13.9 °C 34395 hPa WSW 16.6 km/h 16.6 km/h 29 % 0 mm
15:59 -3.2 °C -14 °C 34395 hPa WSW 23.8 km/h 23.8 km/h 29 % 0 mm
16:04 -3.1 °C -13.9 °C 34395 hPa WSW 11.9 km/h 11.9 km/h 29 % 0 mm
16:09 -3.1 °C -13.9 °C 34395 hPa WSW 20.9 km/h 20.9 km/h 29 % 0 mm
16:14 -3.2 °C -14.3 °C 34361.1 hPa WNW 20.3 km/h 20.3 km/h 28 % 0 mm
16:19 -3.3 °C -14.4 °C 34361.1 hPa West 11.9 km/h 11.9 km/h 28 % 0 mm
16:24 -3.2 °C -14.3 °C 34361.1 hPa WNW 24.3 km/h 24.3 km/h 28 % 0 mm
16:29 -3.3 °C -14.3 °C 34361.1 hPa SW 11.9 km/h 11.9 km/h 28 % 0 mm
16:34 -3.3 °C -14.3 °C 34361.1 hPa SW 15 km/h 15 km/h 28 % 0 mm
16:39 -3.2 °C -14.3 °C 34361.1 hPa West 15 km/h 15 km/h 28 % 0 mm
16:44 -3.1 °C -13.9 °C 34361.1 hPa SW 15 km/h 15 km/h 29 % 0 mm
16:49 -3.1 °C -13.9 °C 34361.1 hPa NW 15 km/h 15 km/h 29 % 0 mm
16:54 -3.3 °C -14.3 °C 34361.1 hPa WSW 20.9 km/h 20.9 km/h 28 % 0 mm
16:59 -3.1 °C -13.9 °C 34361.1 hPa West 15 km/h 15 km/h 29 % 0 mm
17:04 -2.9 °C -13.8 °C 34361.1 hPa WSW 11.9 km/h 11.9 km/h 29 % 0 mm
17:09 -3 °C -14.1 °C 34361.1 hPa WNW 29.8 km/h 29.8 km/h 28 % 0 mm
17:14 -3.1 °C -14.2 °C 34361.1 hPa WSW 11.1 km/h 11.1 km/h 28 % 0 mm
17:19 -3.1 °C -14.2 °C 34361.1 hPa West 23.8 km/h 23.8 km/h 28 % 0 mm
17:24 -3.1 °C -13.9 °C 34361.1 hPa West 17.9 km/h 17.9 km/h 29 % 0 mm
17:29 -3.2 °C -14.3 °C 34361.1 hPa South 20.9 km/h 20.9 km/h 28 % 0 mm
17:34 -3.1 °C -13.9 °C 34361.1 hPa WNW 15 km/h 15 km/h 29 % 0 mm
17:39 -3.3 °C -14.1 °C 34361.1 hPa West 15 km/h 15 km/h 29 % 0 mm
17:40 -3.3 °C -14.1 °C 34361.1 hPa SW 19.2 km/h 19.2 km/h 29 % 0 mm
17:45 -3.4 °C -14.2 °C 34361.1 hPa WSW 22 km/h 22 km/h 29 % 0 mm
17:50 -3.7 °C -14.2 °C 34361.1 hPa SW 15.3 km/h 15.3 km/h 30 % 0 mm
17:55 -3.9 °C -14.3 °C 34361.1 hPa SW 15 km/h 15 km/h 30 % 0 mm
18:00 -4.1 °C -14.3 °C 34361.1 hPa SSW 15 km/h 15 km/h 31 % 0 mm
18:05 -4.3 °C -14.1 °C 34361.1 hPa WSW 17.9 km/h 17.9 km/h 32 % 0 mm
18:10 -4.1 °C -13.9 °C 34361.1 hPa SW 17.9 km/h 17.9 km/h 32 % 0 mm
18:15 -4.3 °C -13.9 °C 34361.1 hPa SSW 29.8 km/h 29.8 km/h 33 % 0 mm
18:20 -4.5 °C -14.1 °C 34361.1 hPa SW 15 km/h 15 km/h 33 % 0 mm
18:25 -4.6 °C -13.9 °C 34395 hPa SSW 16.6 km/h 16.6 km/h 34 % 0 mm
18:30 -4.6 °C -13.9 °C 34395 hPa South 17.9 km/h 17.9 km/h 34 % 0 mm
18:35 -4.6 °C -13.9 °C 34395 hPa West 22 km/h 22 km/h 34 % 0 mm
18:40 -4.6 °C -13.7 °C 34361.1 hPa SW 26.9 km/h 26.9 km/h 35 % 0 mm
18:45 -4.4 °C -13.3 °C 34361.1 hPa SSW 12.7 km/h 12.7 km/h 36 % 0 mm
18:50 -4.5 °C -13.4 °C 34361.1 hPa SW 23.8 km/h 23.8 km/h 36 % 0 mm
18:55 -4.6 °C -13.5 °C 34395 hPa SW 29.8 km/h 29.8 km/h 36 % 0 mm
19:00 -4.7 °C -13.6 °C 34395 hPa SSW 32.8 km/h 32.8 km/h 36 % 0 mm
19:05 -4.8 °C -13.6 °C 34395 hPa SW 17.9 km/h 17.9 km/h 36 % 0 mm
19:10 -4.8 °C -13.6 °C 34395 hPa SW 20.9 km/h 20.9 km/h 36 % 0 mm
19:12 -4.8 °C -13.6 °C 34395 hPa SSW 26.9 km/h 26.9 km/h 36 % 0 mm
19:17 -4.8 °C -13.7 °C 34395 hPa SW 32.8 km/h 32.8 km/h 36 % 0 mm
19:22 -4.9 °C -13.8 °C 34395 hPa SW 38.8 km/h 38.8 km/h 36 % 0 mm
19:27 -4.9 °C -13.8 °C 34395 hPa SSW 20.9 km/h 20.9 km/h 36 % 0 mm
19:32 -5.1 °C -13.7 °C 34395 hPa SSW 35.7 km/h 35.7 km/h 37 % 0 mm
19:37 -5.2 °C -13.7 °C 34395 hPa SW 23.8 km/h 23.8 km/h 37 % 0 mm
19:42 -5.3 °C -13.8 °C 34395 hPa SW 26.9 km/h 26.9 km/h 37 % 0 mm
19:47 -5.4 °C -13.7 °C 34395 hPa SSW 17.9 km/h 17.9 km/h 38 % 0 mm
19:52 -5.5 °C -13.8 °C 34395 hPa SW 38.8 km/h 38.8 km/h 38 % 0 mm
19:57 -5.6 °C -13.7 °C 34395 hPa SW 23.8 km/h 23.8 km/h 39 % 0 mm
20:02 -5.7 °C -13.8 °C 34395 hPa SSW 33.2 km/h 33.2 km/h 39 % 0 mm
20:07 -5.8 °C -13.7 °C 34395 hPa South 26.9 km/h 26.9 km/h 40 % 0 mm
20:12 -5.9 °C -13.8 °C 34395 hPa South 32.8 km/h 32.8 km/h 40 % 0 mm
20:17 -6.1 °C -13.7 °C 34395 hPa SW 29.8 km/h 29.8 km/h 41 % 0 mm
20:22 -6.2 °C -13.8 °C 34395 hPa SW 23.8 km/h 23.8 km/h 41 % 0 mm
20:27 -6.2 °C -13.7 °C 34395 hPa SW 15 km/h 15 km/h 42 % 0 mm
20:32 -6.4 °C -13.8 °C 34395 hPa SW 20.9 km/h 20.9 km/h 42 % 0 mm
20:37 -6.4 °C -13.7 °C 34395 hPa South 26.9 km/h 26.9 km/h 43 % 0 mm
20:42 -6.6 °C -13.8 °C 34428.8 hPa SW 19.2 km/h 19.2 km/h 43 % 0 mm
20:47 -6.6 °C -13.7 °C 34428.8 hPa WSW 22 km/h 22 km/h 44 % 0 mm
20:52 -6.7 °C -13.7 °C 34428.8 hPa SW 17.9 km/h 17.9 km/h 44 % 0 mm
20:57 -6.8 °C -13.8 °C 34462.7 hPa SW 23.8 km/h 23.8 km/h 44 % 0 mm
21:02 -6.8 °C -13.7 °C 34462.7 hPa SW 16.1 km/h 16.1 km/h 45 % 0 mm
21:07 -6.9 °C -13.8 °C 34462.7 hPa SW 23.8 km/h 23.8 km/h 45 % 0 mm
21:12 -7 °C -13.6 °C 34462.7 hPa SW 15 km/h 15 km/h 46 % 0 mm
21:17 -7.1 °C -13.7 °C 34462.7 hPa SSW 19.2 km/h 19.2 km/h 46 % 0 mm
21:22 -7.2 °C -13.6 °C 34462.7 hPa SW 17.9 km/h 17.9 km/h 47 % 0 mm
21:27 -7.2 °C -13.7 °C 34462.7 hPa SW 11.9 km/h 11.9 km/h 47 % 0 mm
21:32 -7.2 °C -13.7 °C 34462.7 hPa WSW 15 km/h 15 km/h 47 % 0 mm
21:37 -7.3 °C -13.4 °C 34462.7 hPa SW 11.9 km/h 11.9 km/h 49 % 0 mm
21:42 -7.4 °C -13.4 °C 34462.7 hPa SW 14.5 km/h 14.5 km/h 49 % 0 mm
21:47 -7.4 °C -13.5 °C 34462.7 hPa SW 15 km/h 15 km/h 49 % 0 mm
21:52 -7.5 °C -13.6 °C 34462.7 hPa SSW 11.9 km/h 11.9 km/h 49 % 0 mm
21:57 -7.6 °C -13.6 °C 34462.7 hPa SW 11.9 km/h 11.9 km/h 49 % 0 mm
22:02 -7.6 °C -13.6 °C 34462.7 hPa SW 11.9 km/h 11.9 km/h 49 % 0 mm
22:07 -7.6 °C -13.5 °C 34462.7 hPa SW 6.3 km/h 6.3 km/h 50 % 0 mm
22:12 -7.7 °C -13.6 °C 34462.7 hPa SW 6.8 km/h 6.8 km/h 50 % 0 mm
22:17 -7.8 °C -13.7 °C 34462.7 hPa SW 9 km/h 9 km/h 50 % 0 mm
22:22 -7.8 °C -13.7 °C 34462.7 hPa WSW 6.3 km/h 6.3 km/h 50 % 0 mm
22:27 -7.8 °C -13.7 °C 34462.7 hPa SW 9 km/h 9 km/h 50 % 0 mm
22:32 -7.9 °C -13.8 °C 34462.7 hPa WSW 9.3 km/h 9.3 km/h 50 % 0 mm
22:37 -7.9 °C -13.8 °C 34462.7 hPa WSW 9 km/h 9 km/h 50 % 0 mm
22:42 -8 °C -13.7 °C 34462.7 hPa WSW 10.3 km/h 10.3 km/h 51 % 0 mm
22:47 -8.1 °C -13.8 °C 34462.7 hPa SSW 9 km/h 9 km/h 51 % 0 mm
22:52 -8.1 °C -13.8 °C 34462.7 hPa South 9 km/h 9 km/h 51 % 0 mm
22:57 -8.2 °C -13.8 °C 34496.6 hPa SW 10.3 km/h 10.3 km/h 51 % 0 mm
23:02 -8.2 °C -13.7 °C 34496.6 hPa SW 9 km/h 9 km/h 52 % 0 mm
23:07 -8.1 °C -13.7 °C 34496.6 hPa SW 8.5 km/h 8.5 km/h 52 % 0 mm
23:12 -8.1 °C -13.7 °C 34496.6 hPa SSW 9 km/h 9 km/h 52 % 0 mm
23:17 -8.2 °C -13.7 °C 34496.6 hPa SW 9 km/h 9 km/h 52 % 0 mm
23:22 -8.2 °C -13.7 °C 34496.6 hPa SW 10.3 km/h 10.3 km/h 52 % 0 mm
23:27 -8.2 °C -13.6 °C 34496.6 hPa SW 9 km/h 9 km/h 53 % 0 mm
23:32 -8.3 °C -13.7 °C 34496.6 hPa WSW 9 km/h 9 km/h 53 % 0 mm
23:37 -8.2 °C -13.6 °C 34496.6 hPa SW 11.9 km/h 11.9 km/h 53 % 0 mm
23:42 -8.2 °C -13.6 °C 34496.6 hPa WSW 9 km/h 9 km/h 53 % 0 mm
23:47 -8.2 °C -13.6 °C 34496.6 hPa WSW 7.6 km/h 7.6 km/h 53 % 0 mm
23:52 -8.2 °C -13.6 °C 34496.6 hPa West 6 km/h 6 km/h 53 % 0 mm
23:57 -8.2 °C -13.6 °C 34496.6 hPa WSW 6.8 km/h 6.8 km/h 53 % 0 mm
Meteo Sesrovires
Elogis d' Weather Underground - 1.5 mb

Guio original per  Jim McMurry - jmcmurry@mwt.net Adaptat per a la plantilla per  Wim van der Kuil - Leuven-Template.eu

Trobareu la nostra informacio del temps tambe a:

Weather Underground

AWEKAS